createdAt,value
2022-12-04T00:01:35.382Z,4.00
2022-12-04T00:04:03.715Z,5.53
2022-12-04T00:06:32.152Z,5.34
2022-12-04T00:09:00.972Z,4.51
2022-12-04T00:11:32.675Z,5.64
2022-12-04T00:14:06.746Z,3.49
2022-12-04T00:16:37.177Z,3.83
2022-12-04T00:19:05.810Z,3.97
2022-12-04T00:21:34.309Z,4.66
2022-12-04T00:24:02.941Z,4.59
2022-12-04T00:26:32.219Z,5.33
2022-12-04T00:29:00.782Z,5.46
2022-12-04T00:31:31.048Z,5.83
2022-12-04T00:34:02.093Z,4.18
2022-12-04T00:36:31.663Z,5.34
2022-12-04T00:39:02.031Z,5.13
2022-12-04T00:41:33.455Z,5.38
2022-12-04T00:44:03.367Z,6.24
2022-12-04T00:46:31.767Z,6.63
2022-12-04T00:49:02.810Z,5.51
2022-12-04T00:51:31.998Z,5.59
2022-12-04T00:54:00.422Z,6.10
2022-12-04T00:56:30.643Z,6.27
2022-12-04T00:59:01.343Z,5.99
2022-12-04T01:01:31.134Z,6.19
2022-12-04T01:04:00.994Z,5.50
2022-12-04T01:06:32.649Z,5.62
2022-12-04T01:09:05.250Z,6.46
2022-12-04T01:11:34.447Z,6.40
2022-12-04T01:14:03.205Z,6.48
2022-12-04T01:16:34.482Z,6.62
2022-12-04T01:19:05.276Z,6.96
2022-12-04T01:21:33.728Z,7.12
2022-12-04T01:24:02.110Z,6.93
2022-12-04T01:26:30.932Z,6.83
2022-12-04T01:28:59.378Z,6.90
2022-12-04T01:31:28.095Z,6.82
2022-12-04T01:33:56.727Z,6.57
2022-12-04T01:36:28.842Z,6.79
2022-12-04T01:38:57.741Z,6.13
2022-12-04T01:41:30.406Z,6.61
2022-12-04T01:44:15.221Z,6.49
2022-12-04T01:46:45.093Z,6.78
2022-12-04T01:49:19.513Z,6.57
2022-12-04T01:51:53.919Z,5.86
2022-12-04T01:54:28.751Z,5.83
2022-12-04T01:57:03.499Z,6.56
2022-12-04T01:59:36.675Z,6.68
2022-12-04T02:02:09.569Z,6.88
2022-12-04T02:04:39.765Z,5.99
2022-12-04T02:07:09.526Z,6.10
2022-12-04T02:09:39.753Z,5.85
2022-12-04T02:12:19.805Z,5.19
2022-12-04T02:14:59.714Z,6.46
2022-12-04T02:17:36.103Z,6.56
2022-12-04T02:20:31.952Z,6.75
2022-12-04T02:23:37.685Z,6.75
2022-12-04T02:26:27.580Z,6.36
2022-12-04T02:29:03.834Z,6.62
2022-12-04T02:31:37.789Z,6.75
2022-12-04T02:34:14.198Z,6.76
2022-12-04T02:36:50.799Z,6.65
2022-12-04T02:39:25.952Z,6.34
2022-12-04T02:42:00.976Z,6.76
2022-12-04T02:44:36.709Z,7.03
2022-12-04T02:47:12.120Z,6.76
2022-12-04T02:49:46.286Z,6.16
2022-12-04T02:52:19.819Z,5.83
2022-12-04T02:54:55.668Z,5.72
2022-12-04T02:57:29.864Z,5.94
2022-12-04T03:00:05.570Z,6.19
2022-12-04T03:02:40.530Z,6.55
2022-12-04T03:05:14.067Z,6.88
2022-12-04T03:07:47.780Z,6.26
2022-12-04T03:10:25.014Z,6.04
2022-12-04T03:12:57.755Z,6.37
2022-12-04T03:15:32.504Z,6.31
2022-12-04T03:18:06.866Z,6.05
2022-12-04T03:20:37.572Z,5.66
2022-12-04T03:23:12.662Z,6.01
2022-12-04T03:25:51.624Z,6.13
2022-12-04T03:28:28.986Z,5.62
2022-12-04T03:31:05.169Z,6.12
2022-12-04T03:33:40.974Z,5.67
2022-12-04T03:36:17.697Z,5.93
2022-12-04T03:38:53.996Z,4.34
2022-12-04T03:41:29.872Z,5.24
2022-12-04T03:44:05.294Z,5.31
2022-12-04T03:46:41.007Z,5.42
2022-12-04T03:49:16.740Z,5.90
2022-12-04T03:51:49.959Z,5.93
2022-12-04T03:54:21.388Z,6.35
2022-12-04T03:56:56.460Z,4.82
2022-12-04T03:59:28.820Z,5.29
2022-12-04T04:02:04.338Z,3.85
2022-12-04T04:04:35.594Z,4.01
2022-12-04T04:07:10.692Z,5.28
2022-12-04T04:09:43.830Z,4.59
2022-12-04T04:12:18.012Z,5.48
2022-12-04T04:15:09.664Z,5.74
2022-12-04T04:18:03.025Z,5.82
2022-12-04T04:20:56.159Z,5.06
2022-12-04T04:23:44.655Z,4.97
2022-12-04T04:26:15.071Z,5.16
2022-12-04T04:28:44.348Z,5.65
2022-12-04T04:31:25.941Z,6.64
2022-12-04T04:34:06.543Z,6.12
2022-12-04T04:36:44.218Z,6.32
2022-12-04T04:39:22.958Z,6.30
2022-12-04T04:41:56.068Z,6.18
2022-12-04T04:44:30.771Z,5.97
2022-12-04T04:47:07.082Z,6.06
2022-12-04T04:49:39.664Z,6.57
2022-12-04T04:52:08.936Z,6.71
2022-12-04T04:54:38.419Z,6.14
2022-12-04T04:57:06.924Z,4.89
2022-12-04T04:59:35.671Z,5.56
2022-12-04T05:02:04.147Z,5.41
2022-12-04T05:04:32.498Z,6.08
2022-12-04T05:07:02.219Z,6.32
2022-12-04T05:09:30.574Z,6.05
2022-12-04T05:11:59.002Z,5.48
2022-12-04T05:14:27.331Z,5.43
2022-12-04T05:16:58.915Z,5.50
2022-12-04T05:19:51.692Z,5.64
2022-12-04T05:22:22.862Z,5.76
2022-12-04T05:24:51.243Z,5.80
2022-12-04T05:27:19.620Z,5.60
2022-12-04T05:29:48.018Z,4.12
2022-12-04T05:32:16.871Z,5.09
2022-12-04T05:34:45.222Z,4.90
2022-12-04T05:37:13.606Z,5.44
2022-12-04T05:39:43.502Z,4.26
2022-12-04T05:42:12.492Z,5.01
2022-12-04T05:44:41.182Z,3.63
2022-12-04T05:47:09.958Z,4.27
2022-12-04T05:49:38.495Z,5.23
2022-12-04T05:52:07.452Z,3.52
2022-12-04T05:54:35.801Z,4.69
2022-12-04T05:57:05.602Z,4.59
2022-12-04T05:59:34.022Z,3.95
2022-12-04T06:02:02.486Z,3.85
2022-12-04T06:04:30.866Z,4.53
2022-12-04T06:06:59.248Z,5.60
2022-12-04T06:09:27.641Z,5.19
2022-12-04T06:11:59.821Z,5.90
2022-12-04T06:14:31.028Z,5.21
2022-12-04T06:17:02.098Z,5.92
2022-12-04T06:19:30.456Z,5.35
2022-12-04T06:21:58.829Z,4.88
2022-12-04T06:24:27.228Z,5.14
2022-12-04T06:27:26.189Z,5.79
2022-12-04T06:29:48.534Z,4.75
2022-12-04T06:32:21.402Z,4.29
2022-12-04T06:34:52.996Z,4.81
2022-12-04T06:37:22.403Z,5.60
2022-12-04T06:39:50.828Z,6.17
2022-12-04T06:42:19.398Z,6.17
2022-12-04T06:44:50.330Z,6.59
2022-12-04T06:47:18.770Z,5.59
2022-12-04T06:49:51.568Z,5.70
2022-12-04T06:52:20.033Z,5.80
2022-12-04T06:54:48.351Z,4.55
2022-12-04T06:57:16.713Z,4.67
2022-12-04T06:59:45.083Z,5.36
2022-12-04T07:02:14.883Z,3.82
2022-12-04T07:04:43.245Z,3.37
2022-12-04T07:07:11.719Z,3.18
2022-12-04T07:09:40.175Z,2.68
2022-12-04T07:12:08.756Z,3.35
2022-12-04T07:14:37.176Z,3.48
2022-12-04T07:17:05.648Z,3.30
2022-12-04T07:19:35.434Z,3.78
2022-12-04T07:22:03.825Z,3.75
2022-12-04T07:24:32.278Z,5.17
2022-12-04T07:27:00.640Z,4.00
2022-12-04T07:29:29.012Z,4.33
2022-12-04T07:31:58.014Z,4.71
2022-12-04T07:34:26.462Z,3.79
2022-12-04T07:36:56.187Z,3.85
2022-12-04T07:39:24.567Z,4.75
2022-12-04T07:41:52.884Z,5.22
2022-12-04T07:44:21.252Z,4.14
2022-12-04T07:46:49.595Z,4.96
2022-12-04T07:49:18.447Z,3.93
2022-12-04T07:51:46.758Z,3.76
2022-12-04T07:54:16.492Z,4.75
2022-12-04T07:56:44.847Z,5.50
2022-12-04T07:59:13.194Z,5.02
2022-12-04T08:01:41.579Z,4.56
2022-12-04T08:04:12.794Z,4.53
2022-12-04T08:06:41.774Z,4.25
2022-12-04T08:09:10.580Z,4.82
2022-12-04T08:11:40.585Z,3.69
2022-12-04T08:14:09.959Z,3.90
2022-12-04T08:16:38.511Z,4.63
2022-12-04T08:19:06.967Z,4.41
2022-12-04T08:21:35.723Z,4.79
2022-12-04T08:24:04.330Z,4.79
2022-12-04T08:26:34.350Z,3.96
2022-12-04T08:29:06.856Z,3.30
2022-12-04T08:31:36.972Z,4.96
2022-12-04T08:34:08.203Z,4.07
2022-12-04T08:36:37.035Z,3.94
2022-12-04T08:39:06.200Z,3.69
2022-12-04T08:41:35.179Z,4.06
2022-12-04T08:44:05.437Z,2.95
2022-12-04T08:46:34.467Z,4.30
2022-12-04T08:49:03.210Z,4.98
2022-12-04T08:51:34.608Z,4.09
2022-12-04T08:54:04.777Z,4.80
2022-12-04T08:56:34.504Z,4.99
2022-12-04T08:59:05.123Z,5.33
2022-12-04T09:01:33.767Z,5.03
2022-12-04T09:04:02.597Z,4.93
2022-12-04T09:06:31.350Z,4.73
2022-12-04T09:08:59.938Z,5.35
2022-12-04T09:11:30.320Z,5.75
2022-12-04T09:13:58.920Z,4.79
2022-12-04T09:16:28.984Z,5.37
2022-12-04T09:18:58.006Z,5.73
2022-12-04T09:21:26.998Z,5.55
2022-12-04T09:23:55.638Z,5.94
2022-12-04T09:26:27.000Z,5.90
2022-12-04T09:28:56.801Z,6.01
2022-12-04T09:31:26.384Z,6.28
2022-12-04T09:33:56.167Z,5.11
2022-12-04T09:36:25.170Z,6.00
2022-12-04T09:38:55.262Z,6.24
2022-12-04T09:41:47.527Z,6.45
2022-12-04T09:44:22.218Z,5.73
2022-12-04T09:46:55.389Z,6.46
2022-12-04T09:49:32.108Z,4.29
2022-12-04T09:52:03.813Z,4.90
2022-12-04T09:54:40.296Z,4.40
2022-12-04T09:57:18.512Z,4.56
2022-12-04T09:59:47.535Z,5.16
2022-12-04T10:02:36.517Z,5.13
2022-12-04T10:05:08.900Z,5.13
2022-12-04T10:07:48.760Z,5.39
2022-12-04T10:10:28.159Z,5.56
2022-12-04T10:13:10.940Z,5.50
2022-12-04T10:15:49.055Z,6.45
2022-12-04T10:18:30.969Z,5.37
2022-12-04T10:21:39.800Z,5.28
2022-12-04T10:24:27.985Z,5.59
2022-12-04T10:27:00.629Z,6.39
2022-12-04T10:29:33.748Z,5.30
2022-12-04T10:32:16.394Z,5.40
2022-12-04T10:34:46.284Z,5.85
2022-12-04T10:37:16.917Z,5.89
2022-12-04T10:39:53.919Z,5.72
2022-12-04T10:42:32.476Z,6.04
2022-12-04T10:45:00.963Z,5.58
2022-12-04T10:47:29.399Z,5.94
2022-12-04T10:50:03.345Z,5.84
2022-12-04T10:52:33.092Z,5.85
2022-12-04T10:55:02.988Z,5.66
2022-12-04T10:57:41.241Z,6.02
2022-12-04T11:00:27.191Z,6.25
2022-12-04T11:02:57.908Z,5.74
2022-12-04T11:05:30.795Z,5.88
2022-12-04T11:08:04.194Z,5.87
2022-12-04T11:10:38.767Z,6.60
2022-12-04T11:13:16.188Z,5.64
2022-12-04T11:15:47.144Z,5.88
2022-12-04T11:18:20.586Z,5.85
2022-12-04T11:20:55.606Z,4.95
2022-12-04T11:23:26.095Z,5.62
2022-12-04T11:26:03.839Z,5.23
2022-12-04T11:28:43.214Z,5.31
2022-12-04T11:31:18.414Z,5.48
2022-12-04T11:33:49.883Z,5.25
2022-12-04T11:36:23.311Z,5.17
2022-12-04T11:38:55.358Z,4.95
2022-12-04T11:41:29.638Z,5.22
2022-12-04T11:44:00.499Z,5.49
2022-12-04T11:46:32.115Z,5.40
2022-12-04T11:49:00.924Z,5.51
2022-12-04T11:51:47.715Z,4.97
2022-12-04T11:54:29.999Z,5.58
2022-12-04T11:57:09.821Z,5.62
2022-12-04T11:59:55.458Z,5.16
2022-12-04T12:02:51.687Z,4.84
2022-12-04T12:05:38.289Z,5.25
2022-12-04T12:08:19.990Z,5.22
2022-12-04T12:10:58.657Z,5.01
2022-12-04T12:13:41.223Z,4.23
2022-12-04T12:16:20.146Z,4.22
2022-12-04T12:19:15.883Z,3.99
2022-12-04T12:21:55.195Z,4.23
2022-12-04T12:24:29.055Z,4.56
2022-12-04T12:27:29.702Z,4.10
2022-12-04T12:30:04.025Z,4.78
2022-12-04T12:32:58.393Z,4.68
2022-12-04T12:35:32.547Z,5.22
2022-12-04T12:38:05.481Z,5.32
2022-12-04T12:40:41.167Z,5.63
2022-12-04T12:43:17.748Z,6.09
2022-12-04T12:45:52.825Z,6.27
2022-12-04T12:48:31.362Z,6.34
2022-12-04T12:51:29.233Z,5.86
2022-12-04T12:54:00.247Z,6.00
2022-12-04T12:56:38.366Z,5.91
2022-12-04T12:59:18.067Z,6.35
2022-12-04T13:01:59.967Z,5.43
2022-12-04T13:04:38.416Z,5.98
2022-12-04T13:07:26.345Z,4.63
2022-12-04T13:10:03.476Z,5.60
2022-12-04T13:12:46.130Z,5.64
2022-12-04T13:15:18.851Z,6.14
2022-12-04T13:17:50.797Z,6.36
2022-12-04T13:20:25.319Z,6.01
2022-12-04T13:23:14.276Z,5.14
2022-12-04T13:25:54.008Z,6.04
2022-12-04T13:28:42.514Z,6.00
2022-12-04T13:31:28.575Z,6.27
2022-12-04T13:34:40.230Z,6.24
2022-12-04T13:37:40.034Z,5.61
2022-12-04T13:40:41.695Z,6.30
2022-12-04T13:43:34.811Z,6.70
2022-12-04T13:46:07.072Z,6.79
2022-12-04T13:48:43.943Z,6.31
2022-12-04T13:51:35.255Z,6.61
2022-12-04T13:54:30.096Z,6.70
2022-12-04T13:57:11.888Z,6.69
2022-12-04T13:59:41.845Z,6.83
2022-12-04T14:02:29.359Z,6.69
2022-12-04T14:05:02.844Z,6.81
2022-12-04T14:07:34.970Z,6.77
2022-12-04T14:10:06.609Z,6.94
2022-12-04T14:12:39.742Z,7.09
2022-12-04T14:15:20.469Z,6.95
2022-12-04T14:18:00.963Z,6.95
2022-12-04T14:20:32.895Z,6.37
2022-12-04T14:23:26.552Z,6.16
2022-12-04T14:25:57.758Z,5.62
2022-12-04T14:28:42.022Z,5.83
2022-12-04T14:31:24.438Z,6.50
2022-12-04T14:33:58.129Z,5.30
2022-12-04T14:36:31.843Z,5.85
2022-12-04T14:39:15.739Z,6.59
2022-12-04T14:41:44.276Z,6.75
2022-12-04T14:44:26.640Z,5.48
2022-12-04T14:47:00.999Z,4.36
2022-12-04T14:49:47.586Z,5.06
2022-12-04T14:52:26.912Z,4.43
2022-12-04T14:55:07.517Z,4.87
2022-12-04T14:57:47.422Z,4.20
2022-12-04T15:00:19.854Z,3.51
2022-12-04T15:02:51.139Z,4.39
2022-12-04T15:05:25.404Z,4.68
2022-12-04T15:07:58.795Z,5.01
2022-12-04T15:10:47.560Z,5.27
2022-12-04T15:13:27.856Z,5.75
2022-12-04T15:15:56.646Z,5.20
2022-12-04T15:18:25.153Z,6.13
2022-12-04T15:21:01.162Z,5.56
2022-12-04T15:23:37.469Z,5.51
2022-12-04T15:26:11.811Z,6.26
2022-12-04T15:28:46.423Z,5.60
2022-12-04T15:31:20.173Z,6.32
2022-12-04T15:33:51.263Z,5.47
2022-12-04T15:36:31.881Z,6.34
2022-12-04T15:39:02.598Z,6.66
2022-12-04T15:41:34.562Z,6.20
2022-12-04T15:44:04.568Z,5.80
2022-12-04T15:46:37.967Z,6.29
2022-12-04T15:49:09.062Z,6.32
2022-12-04T15:51:37.458Z,6.42
2022-12-04T15:54:13.613Z,6.02
2022-12-04T15:56:41.975Z,6.07
2022-12-04T15:59:19.205Z,6.64
2022-12-04T16:01:47.697Z,6.40
2022-12-04T16:04:23.598Z,5.39
2022-12-04T16:06:53.833Z,5.69
2022-12-04T16:09:25.935Z,5.04
2022-12-04T16:12:04.048Z,5.11
2022-12-04T16:14:32.491Z,4.63
2022-12-04T16:17:06.230Z,4.27
2022-12-04T16:19:38.378Z,5.34
2022-12-04T16:22:14.606Z,6.06
2022-12-04T16:24:45.268Z,5.81
2022-12-04T16:27:17.331Z,5.62
2022-12-04T16:29:45.739Z,4.53
2022-12-04T16:32:16.831Z,4.99
2022-12-04T16:34:45.389Z,6.20
2022-12-04T16:37:16.134Z,5.09
2022-12-04T16:39:46.329Z,5.51
2022-12-04T16:42:20.885Z,5.66
2022-12-04T16:44:49.519Z,5.75
2022-12-04T16:47:18.348Z,6.15
2022-12-04T16:49:50.146Z,6.40
2022-12-04T16:52:19.235Z,6.58
2022-12-04T16:54:49.215Z,6.72
2022-12-04T16:57:17.597Z,6.20
2022-12-04T16:59:45.939Z,5.68
2022-12-04T17:02:20.770Z,5.08
2022-12-04T17:04:52.817Z,5.33
2022-12-04T17:07:25.572Z,5.60
2022-12-04T17:09:55.298Z,5.38
2022-12-04T17:12:23.721Z,5.87
2022-12-04T17:14:52.102Z,5.05
2022-12-04T17:17:20.495Z,5.25
2022-12-04T17:19:48.817Z,6.30
2022-12-04T17:22:21.030Z,6.39
2022-12-04T17:24:55.728Z,6.09
2022-12-04T17:27:26.198Z,6.22
2022-12-04T17:29:54.536Z,6.39
2022-12-04T17:32:22.978Z,5.72
2022-12-04T17:34:53.996Z,5.82
2022-12-04T17:37:22.887Z,6.03
2022-12-04T17:39:51.293Z,6.01
2022-12-04T17:42:20.023Z,6.40
2022-12-04T17:44:51.655Z,6.58
2022-12-04T17:47:20.151Z,5.40
2022-12-04T17:49:48.493Z,4.86
2022-12-04T17:52:18.794Z,5.79
2022-12-04T17:54:47.118Z,5.54
2022-12-04T17:57:25.951Z,5.57
2022-12-04T17:59:55.782Z,4.95
2022-12-04T18:02:24.365Z,5.91
2022-12-04T18:04:55.680Z,4.65
2022-12-04T18:07:24.330Z,5.50
2022-12-04T18:09:52.709Z,4.61
2022-12-04T18:12:21.083Z,4.34
2022-12-04T18:14:49.661Z,4.19
2022-12-04T18:17:20.952Z,4.08
2022-12-04T18:19:49.625Z,5.03
2022-12-04T18:22:18.277Z,5.66
2022-12-04T18:24:46.905Z,4.87
2022-12-04T18:27:15.623Z,5.79
2022-12-04T18:29:44.230Z,4.67
2022-12-04T18:32:12.915Z,5.33
2022-12-04T18:34:43.104Z,5.10
2022-12-04T18:37:11.743Z,4.72
2022-12-04T18:39:40.377Z,5.18
2022-12-04T18:42:08.979Z,5.40
2022-12-04T18:44:37.572Z,4.53
2022-12-04T18:47:06.213Z,5.31
2022-12-04T18:49:34.833Z,5.18
2022-12-04T18:52:04.853Z,5.96
2022-12-04T18:54:33.475Z,6.33
2022-12-04T18:57:03.051Z,6.23
2022-12-04T18:59:33.044Z,4.72
2022-12-04T19:02:01.746Z,4.83
2022-12-04T19:04:34.138Z,5.00
2022-12-04T19:07:04.969Z,5.98
2022-12-04T19:10:09.326Z,5.36
2022-12-04T19:12:22.219Z,4.91
2022-12-04T19:14:50.805Z,6.11
2022-12-04T19:17:20.176Z,6.72
2022-12-04T19:19:48.818Z,6.12
2022-12-04T19:22:18.899Z,6.08
2022-12-04T19:24:48.603Z,6.06
2022-12-04T19:27:17.222Z,6.53
2022-12-04T19:29:45.831Z,5.34
2022-12-04T19:32:14.769Z,5.43
2022-12-04T19:34:43.772Z,6.18
2022-12-04T19:37:12.428Z,5.88
2022-12-04T19:39:42.492Z,5.58
2022-12-04T19:42:11.691Z,6.26
2022-12-04T19:44:48.305Z,6.69
2022-12-04T19:47:17.829Z,6.27
2022-12-04T19:49:46.594Z,6.16
2022-12-04T19:52:15.419Z,5.79
2022-12-04T19:54:45.533Z,6.16
2022-12-04T19:57:14.798Z,5.52
2022-12-04T19:59:46.593Z,5.76
2022-12-04T20:02:16.088Z,5.30
2022-12-04T20:04:44.896Z,5.40
2022-12-04T20:07:13.760Z,5.39
2022-12-04T20:09:52.129Z,5.23
2022-12-04T20:12:21.325Z,5.57
2022-12-04T20:14:50.005Z,5.63
2022-12-04T20:17:18.620Z,4.21
2022-12-04T20:19:47.305Z,5.06
2022-12-04T20:22:15.893Z,5.47
2022-12-04T20:24:45.889Z,5.70
2022-12-04T20:27:14.519Z,5.87
2022-12-04T20:29:43.234Z,5.79
2022-12-04T20:32:11.826Z,6.74
2022-12-04T20:34:43.783Z,5.74
2022-12-04T20:37:12.915Z,5.66
2022-12-04T20:39:41.657Z,6.03
2022-12-04T20:42:11.700Z,6.21
2022-12-04T20:44:40.346Z,5.76
2022-12-04T20:47:09.023Z,5.74
2022-12-04T20:49:37.712Z,6.36
2022-12-04T20:52:06.658Z,4.29
2022-12-04T20:54:41.314Z,5.74
2022-12-04T20:57:11.879Z,6.58
2022-12-04T20:59:40.570Z,6.89
2022-12-04T21:02:09.323Z,6.41
2022-12-04T21:04:38.932Z,6.06
2022-12-04T21:07:07.739Z,6.46
2022-12-04T21:09:36.445Z,6.13
2022-12-04T21:12:27.397Z,6.81
2022-12-04T21:15:14.943Z,5.93
2022-12-04T21:17:43.559Z,5.34
2022-12-04T21:20:14.160Z,6.08
2022-12-04T21:22:42.785Z,6.50
2022-12-04T21:25:12.338Z,4.55
2022-12-04T21:27:40.963Z,5.20
2022-12-04T21:30:12.178Z,5.93
2022-12-04T21:32:40.789Z,6.01
2022-12-04T21:35:10.023Z,5.48
2022-12-04T21:37:38.657Z,5.94
2022-12-04T21:40:08.635Z,5.72
2022-12-04T21:42:38.794Z,6.42
2022-12-04T21:45:08.944Z,5.92
2022-12-04T21:47:39.183Z,6.41
2022-12-04T21:50:09.342Z,5.51
2022-12-04T21:52:38.062Z,6.20
2022-12-04T21:55:07.113Z,5.93
2022-12-04T21:57:35.709Z,5.16
2022-12-04T22:00:05.806Z,5.31
2022-12-04T22:02:36.321Z,5.50
2022-12-04T22:05:07.054Z,5.44
2022-12-04T22:07:35.777Z,5.47
2022-12-04T22:10:10.498Z,6.06
2022-12-04T22:12:49.513Z,5.60
2022-12-04T22:15:18.665Z,5.73
2022-12-04T22:17:47.253Z,5.09
2022-12-04T22:20:17.786Z,5.26
2022-12-04T22:22:46.352Z,5.92
2022-12-04T22:25:15.465Z,5.88
2022-12-04T22:27:44.081Z,5.56
2022-12-04T22:30:13.897Z,5.59
2022-12-04T22:32:42.523Z,6.33
2022-12-04T22:35:11.630Z,5.90
2022-12-04T22:37:44.610Z,6.26
2022-12-04T22:40:15.197Z,5.15
2022-12-04T22:42:43.949Z,4.91
2022-12-04T22:45:13.281Z,5.62
2022-12-04T22:47:41.955Z,5.82
2022-12-04T22:50:12.088Z,5.25
2022-12-04T22:52:42.048Z,5.83
2022-12-04T22:55:10.890Z,5.83
2022-12-04T22:57:39.509Z,5.58
2022-12-04T23:00:10.113Z,6.38
2022-12-04T23:02:38.791Z,6.69
2022-12-04T23:05:07.742Z,6.28
2022-12-04T23:07:37.440Z,6.71
2022-12-04T23:10:09.413Z,6.94
2022-12-04T23:12:38.027Z,5.84
2022-12-04T23:15:07.573Z,5.88
2022-12-04T23:17:36.207Z,5.97
2022-12-04T23:20:05.094Z,6.41
2022-12-04T23:22:33.719Z,6.78
2022-12-04T23:25:02.350Z,6.83
2022-12-04T23:27:34.004Z,6.44
2022-12-04T23:30:02.703Z,6.95
2022-12-04T23:32:31.362Z,6.95
2022-12-04T23:34:59.930Z,6.51
2022-12-04T23:37:28.519Z,6.31
2022-12-04T23:39:57.363Z,6.80
2022-12-04T23:42:26.369Z,6.76
2022-12-04T23:44:56.351Z,6.77
2022-12-04T23:47:25.002Z,7.26
2022-12-04T23:49:53.576Z,7.01
2022-12-04T23:52:22.213Z,7.16
2022-12-04T23:54:50.850Z,7.31
2022-12-04T23:57:19.500Z,7.13
2022-12-04T23:59:48.088Z,6.32
